Time;durP1;ratioP1;P1;durP2;ratioP2;P2;SDS_P1;SDS_P2;PMS_P1;PMS_P2;Temp;Humidity;BMP_temperature;BMP_pressure;BME280_temperature;BME280_humidity;BME280_pressure;Samples;Min_cycle;Max_cycle;Signal;HPM_P1;HPM_P2
2022/10/13 00:00:04;;;;;;;26.40;17.27;;;;;;;;;;4966839;28;20039;-77
2022/10/13 00:02:30;;;;;;;27.38;16.88;;;;;;;;;;4972158;28;20485;-77
2022/10/13 00:04:56;;;;;;;29.23;17.63;;;;;;;;;;4972613;28;20474;-77
2022/10/13 00:07:22;;;;;;;29.08;16.77;;;;;;;;;;4968528;28;20054;-77
2022/10/13 00:09:48;;;;;;;27.67;18.65;;;;;;;;;;4953588;28;20047;-77
2022/10/13 00:12:14;;;;;;;31.95;19.17;;;;;;;;;;4955072;28;20050;-77
2022/10/13 00:14:40;;;;;;;29.88;17.67;;;;;;;;;;4952924;29;20122;-77
2022/10/13 00:17:06;;;;;;;29.55;18.88;;;;;;;;;;4954081;28;20090;-77
2022/10/13 00:19:32;;;;;;;30.33;17.80;;;;;;;;;;4953253;28;20105;-77
2022/10/13 00:21:58;;;;;;;26.00;17.40;;;;;;;;;;4953544;28;20062;-77
2022/10/13 00:24:25;;;;;;;29.38;18.27;;;;;;;;;;4951763;29;20509;-77
2022/10/13 00:26:51;;;;;;;28.98;19.33;;;;;;;;;;4953450;28;20078;-77
2022/10/13 00:29:17;;;;;;;29.30;18.88;;;;;;;;;;4953057;28;20124;-77
2022/10/13 00:31:43;;;;;;;34.90;18.20;;;;;;;;;;4961610;28;20529;-77
2022/10/13 00:34:09;;;;;;;27.27;18.17;;;;;;;;;;4969902;28;20130;-77
2022/10/13 00:36:35;;;;;;;31.25;17.38;;;;;;;;;;4953633;29;20047;-77
2022/10/13 00:39:01;;;;;;;31.48;18.77;;;;;;;;;;4952582;29;20050;-77
2022/10/13 00:41:27;;;;;;;29.05;17.80;;;;;;;;;;4953053;29;20043;-77
2022/10/13 00:44:14;;;;;;;27.38;18.48;;;;;;;;;;4957821;28;20552;-77
2022/10/13 00:46:40;;;;;;;32.90;19.00;;;;;;;;;;4946521;28;20051;-77
2022/10/13 00:49:07;;;;;;;29.83;18.48;;;;;;;;;;4952914;28;20043;-77
2022/10/13 00:51:36;;;;;;;31.73;18.52;;;;;;;;;;4953029;28;20164;-77
2022/10/13 00:54:03;;;;;;;32.97;18.85;;;;;;;;;;4952800;28;20051;-77
2022/10/13 00:56:29;;;;;;;33.80;19.02;;;;;;;;;;4956361;28;20088;-77
2022/10/13 00:58:55;;;;;;;29.33;18.10;;;;;;;;;;4971802;28;20420;-77
2022/10/13 01:01:21;;;;;;;33.92;18.25;;;;;;;;;;4969594;28;20046;-77
2022/10/13 01:03:47;;;;;;;32.53;18.75;;;;;;;;;;4952796;29;20075;-77
2022/10/13 01:06:18;;;;;;;28.67;19.60;;;;;;;;;;4952671;29;20085;-77
2022/10/13 01:08:44;;;;;;;32.33;19.48;;;;;;;;;;4953085;29;20077;-77
2022/10/13 01:11:16;;;;;;;34.13;20.77;;;;;;;;;;4953170;28;20054;-77
2022/10/13 01:13:54;;;;;;;30.80;19.10;;;;;;;;;;4962394;28;20144;-77
2022/10/13 01:16:39;;;;;;;29.20;18.50;;;;;;;;;;4952525;28;20054;-77
2022/10/13 01:19:24;;;;;;;30.98;18.58;;;;;;;;;;4952506;28;20047;-77
2022/10/13 01:21:53;;;;;;;32.40;19.30;;;;;;;;;;4958352;28;20396;-77
2022/10/13 01:24:25;;;;;;;34.95;18.63;;;;;;;;;;4972406;28;20055;-77
2022/10/13 01:27:03;;;;;;;31.20;18.88;;;;;;;;;;4965969;28;20458;-77
2022/10/13 01:29:34;;;;;;;32.35;18.05;;;;;;;;;;4952504;29;20461;-77
2022/10/13 01:32:05;;;;;;;35.00;19.25;;;;;;;;;;4952487;28;20043;-77
2022/10/13 01:34:37;;;;;;;31.92;18.70;;;;;;;;;;4952369;28;20044;-77
2022/10/13 01:37:10;;;;;;;32.65;20.15;;;;;;;;;;4952584;28;20055;-77
2022/10/13 01:39:49;;;;;;;36.20;20.27;;;;;;;;;;4952510;28;20446;-77
2022/10/13 01:42:24;;;;;;;33.63;18.10;;;;;;;;;;4952488;28;20047;-77
2022/10/13 01:44:52;;;;;;;33.55;19.88;;;;;;;;;;4952179;28;20122;-77
2022/10/13 01:47:20;;;;;;;33.30;18.88;;;;;;;;;;4959213;28;20050;-77
2022/10/13 01:49:46;;;;;;;32.72;18.63;;;;;;;;;;4973471;28;20043;-77
2022/10/13 01:52:15;;;;;;;30.23;18.63;;;;;;;;;;4975901;28;20047;-77
2022/10/13 01:54:41;;;;;;;32.65;19.05;;;;;;;;;;4975099;28;20043;-77
2022/10/13 01:57:26;;;;;;;33.55;20.40;;;;;;;;;;4958619;28;20044;-77
2022/10/13 01:59:52;;;;;;;30.75;18.42;;;;;;;;;;4955356;28;20058;-77
2022/10/13 02:02:21;;;;;;;34.42;19.35;;;;;;;;;;4955618;28;20048;-77
2022/10/13 02:04:59;;;;;;;32.30;19.48;;;;;;;;;;4958470;28;20038;-77
2022/10/13 02:07:29;;;;;;;33.00;20.02;;;;;;;;;;4974355;28;20409;-77
2022/10/13 02:10:14;;;;;;;31.00;18.77;;;;;;;;;;4973966;28;20520;-77
2022/10/13 02:13:00;;;;;;;31.50;20.10;;;;;;;;;;4968615;28;20047;-77
2022/10/13 02:15:47;;;;;;;29.08;18.65;;;;;;;;;;4977502;28;20046;-77
2022/10/13 02:18:14;;;;;;;30.20;19.48;;;;;;;;;;4975777;28;20054;-77
2022/10/13 02:20:41;;;;;;;33.72;19.27;;;;;;;;;;4959669;28;20050;-77
2022/10/13 02:23:10;;;;;;;36.13;20.25;;;;;;;;;;4955312;29;20522;-78
2022/10/13 02:25:37;;;;;;;32.80;19.58;;;;;;;;;;4955367;29;20036;-78
2022/10/13 02:28:03;;;;;;;34.55;19.98;;;;;;;;;;4953835;29;20051;-77
2022/10/13 02:30:32;;;;;;;34.38;20.15;;;;;;;;;;4955778;28;20051;-77
2022/10/13 02:32:58;;;;;;;34.53;20.38;;;;;;;;;;4954771;28;20375;-76
2022/10/13 02:35:24;;;;;;;33.50;19.92;;;;;;;;;;4955305;28;20047;-77
2022/10/13 02:37:50;;;;;;;34.17;19.55;;;;;;;;;;4955120;28;20075;-77
2022/10/13 02:40:16;;;;;;;33.55;20.25;;;;;;;;;;4962316;28;20406;-76
2022/10/13 02:42:43;;;;;;;35.38;20.35;;;;;;;;;;4974569;28;20050;-77
2022/10/13 02:45:09;;;;;;;38.78;20.75;;;;;;;;;;4973116;28;20059;-75
2022/10/13 02:47:35;;;;;;;34.13;20.23;;;;;;;;;;4974315;28;20054;-76
2022/10/13 02:50:01;;;;;;;38.80;20.30;;;;;;;;;;4955800;28;20047;-75
2022/10/13 02:52:27;;;;;;;34.95;20.63;;;;;;;;;;4955122;29;20054;-75
2022/10/13 02:54:53;;;;;;;31.20;19.20;;;;;;;;;;4960489;28;20038;-75
2022/10/13 02:57:19;;;;;;;30.20;18.90;;;;;;;;;;4974024;28;20629;-75
2022/10/13 02:59:45;;;;;;;30.80;19.10;;;;;;;;;;4973740;28;20125;-75
2022/10/13 03:02:11;;;;;;;34.55;20.00;;;;;;;;;;4973496;28;20126;-75
2022/10/13 03:04:37;;;;;;;31.25;18.88;;;;;;;;;;4957107;28;20039;-75
2022/10/13 03:07:03;;;;;;;35.15;20.05;;;;;;;;;;4954380;29;20046;-75
2022/10/13 03:09:29;;;;;;;33.05;19.20;;;;;;;;;;4952688;29;20046;-75
2022/10/13 03:11:55;;;;;;;36.17;19.35;;;;;;;;;;4954328;28;20125;-75
2022/10/13 03:14:22;;;;;;;31.65;18.73;;;;;;;;;;4936975;29;20053;-75
2022/10/13 03:16:48;;;;;;;27.98;18.20;;;;;;;;;;4954771;28;20130;-75
2022/10/13 03:19:14;;;;;;;32.95;20.02;;;;;;;;;;4970357;28;20051;-75
2022/10/13 03:21:40;;;;;;;33.40;19.42;;;;;;;;;;4973589;28;20055;-75
2022/10/13 03:24:06;;;;;;;30.23;17.85;;;;;;;;;;4954590;29;20081;-75
2022/10/13 03:26:33;;;;;;;33.33;19.40;;;;;;;;;;4962476;28;20079;-75
2022/10/13 03:28:59;;;;;;;34.22;19.63;;;;;;;;;;4968189;28;20100;-75
2022/10/13 03:31:25;;;;;;;33.92;19.23;;;;;;;;;;4954022;29;20039;-76
2022/10/13 03:33:51;;;;;;;31.30;18.65;;;;;;;;;;4965071;28;20047;-76
2022/10/13 03:36:17;;;;;;;31.52;20.00;;;;;;;;;;4953932;28;20046;-76
2022/10/13 03:38:43;;;;;;;33.38;20.45;;;;;;;;;;4952367;28;20979;-76
2022/10/13 03:41:11;;;;;;;33.88;20.70;;;;;;;;;;4954220;29;20475;-76
2022/10/13 03:43:37;;;;;;;32.88;19.58;;;;;;;;;;4953963;28;20047;-76
2022/10/13 03:46:04;;;;;;;35.08;19.63;;;;;;;;;;4953826;29;20069;-76
2022/10/13 03:48:31;;;;;;;34.10;19.98;;;;;;;;;;4953792;29;20039;-77
2022/10/13 03:50:57;;;;;;;38.08;22.05;;;;;;;;;;4953217;28;20116;-76
2022/10/13 03:53:23;;;;;;;33.35;21.33;;;;;;;;;;4954144;28;20081;-76
2022/10/13 03:55:54;;;;;;;34.17;21.65;;;;;;;;;;4958915;28;20050;-76
2022/10/13 03:58:20;;;;;;;40.17;21.17;;;;;;;;;;4969020;28;20074;-76
2022/10/13 04:00:47;;;;;;;34.30;20.13;;;;;;;;;;4953760;29;20043;-76
2022/10/13 04:03:13;;;;;;;36.10;21.50;;;;;;;;;;4962577;28;20050;-76
2022/10/13 04:05:39;;;;;;;38.33;22.25;;;;;;;;;;4958475;28;20079;-75
2022/10/13 04:08:05;;;;;;;35.70;21.58;;;;;;;;;;4952619;29;20043;-75
2022/10/13 04:10:31;;;;;;;39.00;21.80;;;;;;;;;;4953395;29;20054;-75
2022/10/13 04:12:57;;;;;;;37.97;22.65;;;;;;;;;;4951502;29;20055;-76
2022/10/13 04:15:23;;;;;;;40.10;23.80;;;;;;;;;;4968084;28;20054;-75
2022/10/13 04:17:49;;;;;;;39.50;22.73;;;;;;;;;;4964508;28;20043;-75
2022/10/13 04:20:15;;;;;;;39.95;23.58;;;;;;;;;;4953614;28;20043;-75
2022/10/13 04:22:42;;;;;;;42.42;23.48;;;;;;;;;;4960428;28;20497;-75
2022/10/13 04:25:08;;;;;;;46.03;24.33;;;;;;;;;;4956823;28;20059;-75
2022/10/13 04:27:37;;;;;;;39.67;23.50;;;;;;;;;;4953458;28;20113;-75
2022/10/13 04:30:04;;;;;;;44.45;25.42;;;;;;;;;;4951762;29;20071;-75
2022/10/13 04:32:30;;;;;;;39.72;23.30;;;;;;;;;;4952165;29;20050;-75
2022/10/13 04:34:56;;;;;;;39.90;24.20;;;;;;;;;;4951852;28;20047;-75
2022/10/13 04:37:23;;;;;;;41.30;24.98;;;;;;;;;;4953705;28;20112;-75
2022/10/13 04:39:49;;;;;;;43.38;24.67;;;;;;;;;;4953589;28;20047;-75
2022/10/13 04:42:15;;;;;;;40.95;24.10;;;;;;;;;;4951576;28;20494;-75
2022/10/13 04:44:41;;;;;;;41.38;24.67;;;;;;;;;;4952970;29;20467;-75
2022/10/13 04:47:07;;;;;;;44.92;25.02;;;;;;;;;;4953415;29;20047;-75
2022/10/13 04:49:33;;;;;;;39.08;23.75;;;;;;;;;;4952924;28;20048;-75
2022/10/13 04:51:59;;;;;;;46.05;25.50;;;;;;;;;;4951455;29;20078;-75
2022/10/13 04:54:25;;;;;;;46.30;24.63;;;;;;;;;;4952536;29;20505;-75
2022/10/13 04:56:52;;;;;;;44.83;26.02;;;;;;;;;;4951566;29;20055;-75
2022/10/13 04:59:18;;;;;;;36.75;23.30;;;;;;;;;;4952570;28;20509;-76
2022/10/13 05:01:44;;;;;;;43.65;25.23;;;;;;;;;;4952444;29;20406;-76
2022/10/13 05:04:10;;;;;;;46.42;26.35;;;;;;;;;;4960140;28;20118;-75
2022/10/13 05:06:37;;;;;;;49.38;27.63;;;;;;;;;;4952111;29;20069;-75
2022/10/13 05:09:03;;;;;;;47.10;28.75;;;;;;;;;;4951280;28;20091;-75
2022/10/13 05:11:30;;;;;;;54.75;27.25;;;;;;;;;;4953225;28;20044;-75
2022/10/13 05:13:56;;;;;;;45.03;27.60;;;;;;;;;;4951018;28;20093;-75
2022/10/13 05:16:23;;;;;;;47.97;27.55;;;;;;;;;;4952507;28;20062;-75
2022/10/13 05:18:49;;;;;;;48.78;27.50;;;;;;;;;;4958567;28;20042;-75
2022/10/13 05:21:17;;;;;;;45.22;26.60;;;;;;;;;;4970635;28;20070;-75
2022/10/13 05:23:44;;;;;;;47.63;27.63;;;;;;;;;;4957411;28;20074;-76
2022/10/13 05:26:11;;;;;;;46.15;26.60;;;;;;;;;;4952770;29;20051;-75
2022/10/13 05:28:37;;;;;;;50.72;27.50;;;;;;;;;;4955388;28;20055;-75
2022/10/13 05:31:14;;;;;;;43.80;25.63;;;;;;;;;;4970032;28;20050;-76
2022/10/13 05:33:41;;;;;;;44.78;27.80;;;;;;;;;;4971593;28;20126;-75
2022/10/13 05:36:08;;;;;;;49.78;26.67;;;;;;;;;;4971708;28;20070;-76
2022/10/13 05:38:34;;;;;;;47.35;27.38;;;;;;;;;;4957676;28;20437;-75
2022/10/13 05:41:04;;;;;;;53.78;29.20;;;;;;;;;;4953854;29;20048;-75
2022/10/13 05:43:31;;;;;;;48.25;26.63;;;;;;;;;;4955970;28;20078;-75
2022/10/13 05:45:57;;;;;;;55.13;30.15;;;;;;;;;;4954010;28;20050;-75
2022/10/13 05:48:23;;;;;;;53.92;28.83;;;;;;;;;;4952222;28;20097;-75
2022/10/13 05:50:49;;;;;;;54.03;29.58;;;;;;;;;;4952191;28;20039;-75
2022/10/13 05:53:16;;;;;;;54.92;29.70;;;;;;;;;;4952182;29;20056;-75
2022/10/13 05:55:42;;;;;;;51.50;28.33;;;;;;;;;;4935779;28;20050;-76
2022/10/13 05:58:08;;;;;;;47.20;27.52;;;;;;;;;;4951513;29;20548;-76
2022/10/13 06:00:35;;;;;;;50.78;27.50;;;;;;;;;;4969659;28;20039;-76
2022/10/13 06:03:06;;;;;;;46.42;27.05;;;;;;;;;;4970279;28;20156;-76
2022/10/13 06:05:33;;;;;;;53.35;28.48;;;;;;;;;;4951587;29;20453;-77
2022/10/13 06:07:59;;;;;;;50.90;27.90;;;;;;;;;;4952396;28;20047;-76
2022/10/13 06:10:25;;;;;;;46.97;27.02;;;;;;;;;;4952428;28;20043;-77
2022/10/13 06:12:52;;;;;;;51.47;28.88;;;;;;;;;;4951625;28;20043;-76
2022/10/13 06:15:18;;;;;;;50.30;26.92;;;;;;;;;;4951837;28;20059;-76
2022/10/13 06:17:44;;;;;;;54.67;29.65;;;;;;;;;;4960573;28;20082;-77
2022/10/13 06:20:10;;;;;;;53.63;28.77;;;;;;;;;;4971024;28;20047;-77
2022/10/13 06:22:36;;;;;;;44.15;27.40;;;;;;;;;;4970865;28;20062;-77
2022/10/13 06:25:03;;;;;;;48.28;28.15;;;;;;;;;;4971155;28;20394;-77
2022/10/13 06:27:30;;;;;;;51.42;28.20;;;;;;;;;;4967627;28;20097;-77
2022/10/13 06:29:56;;;;;;;46.80;28.33;;;;;;;;;;4964120;28;20470;-77
2022/10/13 06:32:23;;;;;;;51.20;27.70;;;;;;;;;;4969301;28;20059;-77
2022/10/13 06:34:49;;;;;;;48.05;27.38;;;;;;;;;;4967802;28;20104;-78
2022/10/13 06:37:15;;;;;;;44.60;26.30;;;;;;;;;;4954814;28;20416;-77
2022/10/13 06:39:41;;;;;;;50.15;28.48;;;;;;;;;;4955080;28;20051;-75
2022/10/13 06:42:07;;;;;;;52.15;29.40;;;;;;;;;;4955069;28;20043;-78
2022/10/13 06:44:33;;;;;;;47.28;28.25;;;;;;;;;;4954770;28;20181;-79
2022/10/13 06:46:59;;;;;;;54.15;29.73;;;;;;;;;;4973314;28;20456;-79
2022/10/13 06:49:25;;;;;;;50.72;29.42;;;;;;;;;;4970570;28;20050;-79
2022/10/13 06:51:52;;;;;;;61.03;30.15;;;;;;;;;;4954958;29;20127;-79
2022/10/13 06:54:18;;;;;;;55.38;28.45;;;;;;;;;;4954656;28;20149;-79
2022/10/13 06:56:44;;;;;;;52.00;28.95;;;;;;;;;;4954828;28;20051;-78
2022/10/13 06:59:10;;;;;;;50.83;28.25;;;;;;;;;;4955024;28;20051;-78
2022/10/13 07:01:36;;;;;;;48.85;29.13;;;;;;;;;;4953524;29;20047;-78
2022/10/13 07:04:02;;;;;;;45.90;28.48;;;;;;;;;;4954500;28;20070;-78
2022/10/13 07:06:28;;;;;;;51.70;27.88;;;;;;;;;;4965406;28;20122;-78
2022/10/13 07:08:54;;;;;;;51.17;29.08;;;;;;;;;;4955094;28;20070;-78
2022/10/13 07:11:20;;;;;;;55.83;30.58;;;;;;;;;;4954549;28;20035;-78
2022/10/13 07:13:46;;;;;;;52.00;30.23;;;;;;;;;;4955415;28;20043;-78
2022/10/13 07:16:12;;;;;;;53.75;28.73;;;;;;;;;;4953449;29;20494;-78
2022/10/13 07:18:38;;;;;;;55.70;29.10;;;;;;;;;;4955260;28;20055;-79
2022/10/13 07:21:05;;;;;;;57.08;30.25;;;;;;;;;;4963941;28;20082;-79
2022/10/13 07:23:31;;;;;;;60.97;30.52;;;;;;;;;;4973906;28;20062;-79
2022/10/13 07:25:58;;;;;;;53.08;29.98;;;;;;;;;;4973262;28;20043;-79
2022/10/13 07:28:25;;;;;;;55.33;30.13;;;;;;;;;;4972680;28;20051;-79
2022/10/13 07:30:51;;;;;;;53.80;29.17;;;;;;;;;;4972752;28;20187;-79
2022/10/13 07:33:17;;;;;;;58.45;32.38;;;;;;;;;;4973163;28;20107;-83
2022/10/13 07:35:43;;;;;;;51.97;29.63;;;;;;;;;;4954885;28;20093;-80
2022/10/13 07:38:09;;;;;;;59.40;32.38;;;;;;;;;;4955452;28;20050;-80
2022/10/13 07:40:35;;;;;;;64.30;32.38;;;;;;;;;;4966187;28;20043;-77
2022/10/13 07:43:01;;;;;;;57.67;30.35;;;;;;;;;;4970191;28;20061;-80
2022/10/13 07:45:28;;;;;;;56.63;31.48;;;;;;;;;;4969111;28;20386;-78
2022/10/13 07:47:54;;;;;;;62.28;33.05;;;;;;;;;;4953834;28;20058;-78
2022/10/13 07:50:20;;;;;;;66.35;33.42;;;;;;;;;;4956583;28;20165;-77
2022/10/13 07:52:46;;;;;;;64.10;31.42;;;;;;;;;;4962300;28;20414;-80
2022/10/13 07:55:12;;;;;;;59.75;31.85;;;;;;;;;;4952225;29;20134;-79
2022/10/13 07:57:38;;;;;;;69.22;33.90;;;;;;;;;;4953994;28;20043;-80
2022/10/13 08:00:05;;;;;;;68.68;33.22;;;;;;;;;;4953721;29;20134;-78
2022/10/13 08:02:31;;;;;;;64.60;32.35;;;;;;;;;;4953886;28;20494;-78
2022/10/13 08:04:57;;;;;;;71.18;33.42;;;;;;;;;;4953800;29;20051;-81
2022/10/13 08:07:23;;;;;;;65.60;33.95;;;;;;;;;;4954663;28;20119;-76
2022/10/13 08:09:49;;;;;;;76.80;33.42;;;;;;;;;;4953520;28;20564;-77
2022/10/13 08:12:15;;;;;;;68.38;33.92;;;;;;;;;;4957029;28;20039;-78
2022/10/13 08:14:41;;;;;;;72.50;36.33;;;;;;;;;;4954269;28;20134;-78
2022/10/13 08:17:07;;;;;;;60.92;33.30;;;;;;;;;;4958875;28;20046;-78
2022/10/13 08:19:36;;;;;;;79.00;35.17;;;;;;;;;;4968256;28;20156;-78
2022/10/13 08:22:02;;;;;;;67.95;35.53;;;;;;;;;;4966587;28;20051;-78
2022/10/13 08:24:29;;;;;;;67.60;35.90;;;;;;;;;;4953823;28;20085;-78
2022/10/13 08:26:55;;;;;;;64.95;34.58;;;;;;;;;;4965200;28;20043;-78
2022/10/13 08:29:21;;;;;;;60.13;32.78;;;;;;;;;;4966025;28;20446;-79
2022/10/13 08:31:48;;;;;;;69.63;34.13;;;;;;;;;;4954813;28;20474;-79
2022/10/13 08:34:14;;;;;;;78.63;36.75;;;;;;;;;;4953488;28;20143;-78
2022/10/13 08:36:40;;;;;;;61.95;33.13;;;;;;;;;;4968547;28;20050;-78
2022/10/13 08:39:07;;;;;;;64.10;34.75;;;;;;;;;;4953067;29;20043;-78
2022/10/13 08:41:36;;;;;;;69.72;35.35;;;;;;;;;;4956490;28;20047;-78
2022/10/13 08:44:04;;;;;;;68.85;34.70;;;;;;;;;;4952915;29;20051;-78
2022/10/13 08:46:35;;;;;;;70.88;35.22;;;;;;;;;;4952316;28;20047;-79
2022/10/13 08:49:02;;;;;;;62.72;34.33;;;;;;;;;;4953170;28;20043;-79
2022/10/13 08:51:29;;;;;;;62.13;34.20;;;;;;;;;;4962064;28;20081;-79
2022/10/13 08:53:58;;;;;;;65.47;35.10;;;;;;;;;;4952724;29;20375;-78
2022/10/13 08:56:25;;;;;;;73.55;37.20;;;;;;;;;;4953186;29;20051;-79
2022/10/13 08:58:53;;;;;;;66.32;33.45;;;;;;;;;;4952292;28;20051;-79
2022/10/13 09:01:19;;;;;;;78.00;37.88;;;;;;;;;;4952933;29;20435;-79
2022/10/13 09:03:45;;;;;;;68.75;34.33;;;;;;;;;;4964991;28;20498;-78
2022/10/13 09:06:14;;;;;;;72.75;35.08;;;;;;;;;;4972252;28;20062;-79
2022/10/13 09:08:43;;;;;;;69.22;34.40;;;;;;;;;;4965957;28;20356;-79
2022/10/13 09:11:10;;;;;;;62.55;33.42;;;;;;;;;;4958708;28;20044;-79
2022/10/13 09:13:36;;;;;;;65.75;33.95;;;;;;;;;;4957503;28;20039;-78
2022/10/13 09:16:02;;;;;;;62.00;32.50;;;;;;;;;;4959256;28;20506;-78
2022/10/13 09:18:30;;;;;;;70.72;34.05;;;;;;;;;;4961452;28;20054;-79
2022/10/13 09:21:15;;;;;;;63.05;32.53;;;;;;;;;;4952635;28;20113;-79
2022/10/13 09:23:41;;;;;;;61.85;32.78;;;;;;;;;;4951041;28;20054;-78
2022/10/13 09:26:08;;;;;;;60.15;33.15;;;;;;;;;;4952439;28;20414;-78
2022/10/13 09:28:35;;;;;;;63.88;31.75;;;;;;;;;;4953149;28;20047;-78
2022/10/13 09:31:20;;;;;;;69.55;32.08;;;;;;;;;;4952652;28;20058;-78
2022/10/13 09:33:47;;;;;;;59.47;30.30;;;;;;;;;;4952596;28;20050;-76
2022/10/13 09:36:19;;;;;;;55.15;30.00;;;;;;;;;;4951310;29;20052;-76
2022/10/13 09:39:04;;;;;;;55.55;29.20;;;;;;;;;;4957002;28;20414;-76
2022/10/13 09:41:30;;;;;;;59.60;30.38;;;;;;;;;;4953565;28;20105;-75
2022/10/13 09:43:58;;;;;;;52.60;28.50;;;;;;;;;;4954131;29;20062;-75
2022/10/13 09:46:24;;;;;;;55.60;29.48;;;;;;;;;;4954957;28;20089;-75
2022/10/13 09:48:51;;;;;;;60.17;29.35;;;;;;;;;;4956277;28;20039;-75
2022/10/13 09:51:36;;;;;;;52.78;27.08;;;;;;;;;;4956617;28;20052;-75
2022/10/13 09:54:02;;;;;;;51.35;28.48;;;;;;;;;;4955986;28;20039;-75
2022/10/13 09:56:28;;;;;;;52.42;27.27;;;;;;;;;;4954508;28;20098;-75
2022/10/13 09:59:13;;;;;;;44.60;27.00;;;;;;;;;;4965498;28;20044;-82
2022/10/13 10:01:42;;;;;;;51.15;27.02;;;;;;;;;;4955140;29;20047;-76
2022/10/13 10:04:29;;;;;;;51.13;26.63;;;;;;;;;;4954489;29;20047;-77
2022/10/13 10:06:55;;;;;;;45.08;26.80;;;;;;;;;;4953123;29;20497;-77
2022/10/13 10:09:21;;;;;;;48.88;26.23;;;;;;;;;;4954101;28;20074;-76
2022/10/13 10:11:49;;;;;;;49.00;25.33;;;;;;;;;;4974078;28;20125;-76
2022/10/13 10:14:19;;;;;;;41.10;24.80;;;;;;;;;;4970933;28;20043;-76
2022/10/13 10:16:50;;;;;;;42.03;24.92;;;;;;;;;;4959043;28;20047;-77
2022/10/13 10:19:20;;;;;;;39.10;23.17;;;;;;;;;;4968270;28;20048;-77
2022/10/13 10:21:57;;;;;;;43.20;24.05;;;;;;;;;;4958467;28;20439;-77
2022/10/13 10:24:38;;;;;;;39.55;25.05;;;;;;;;;;4954972;29;20051;-77
2022/10/13 10:27:23;;;;;;;34.13;22.38;;;;;;;;;;4955086;28;20066;-77
2022/10/13 10:29:59;;;;;;;37.88;23.13;;;;;;;;;;4954878;28;20054;-77
2022/10/13 10:32:41;;;;;;;36.95;22.55;;;;;;;;;;4955116;28;20043;-76
2022/10/13 10:35:26;;;;;;;32.97;20.80;;;;;;;;;;4961734;28;20129;-75
2022/10/13 10:38:10;;;;;;;31.98;21.38;;;;;;;;;;4958062;28;20414;-75
2022/10/13 10:40:46;;;;;;;29.67;20.55;;;;;;;;;;4955168;28;20134;-74
2022/10/13 10:43:12;;;;;;;33.15;21.13;;;;;;;;;;4954994;28;20541;-75
2022/10/13 10:45:39;;;;;;;29.77;19.23;;;;;;;;;;4955419;29;20087;-74
2022/10/13 10:48:14;;;;;;;31.42;19.27;;;;;;;;;;4955485;29;20067;-75
2022/10/13 10:50:40;;;;;;;28.00;18.33;;;;;;;;;;4956447;28;20101;-74
2022/10/13 10:53:42;;;;;;;27.98;18.25;;;;;;;;;;4973113;28;20069;-75
2022/10/13 10:56:14;;;;;;;25.00;16.45;;;;;;;;;;4951669;29;20070;-76
2022/10/13 10:58:43;;;;;;;22.92;16.17;;;;;;;;;;4938801;29;20056;-75
2022/10/13 11:01:28;;;;;;;23.98;15.52;;;;;;;;;;4935029;29;20048;-76
2022/10/13 11:03:54;;;;;;;24.13;16.80;;;;;;;;;;4933967;29;20059;-76
2022/10/13 11:06:23;;;;;;;23.27;16.27;;;;;;;;;;4933923;29;20130;-76
2022/10/13 11:08:54;;;;;;;25.95;16.63;;;;;;;;;;4933239;29;20392;-79
2022/10/13 11:11:20;;;;;;;25.58;16.20;;;;;;;;;;4937062;29;20094;-77
2022/10/13 11:13:50;;;;;;;22.08;15.80;;;;;;;;;;4940995;29;20040;-78
2022/10/13 11:16:28;;;;;;;24.52;15.68;;;;;;;;;;4918136;29;20103;-79
2022/10/13 11:18:54;;;;;;;21.52;15.55;;;;;;;;;;4913849;29;20422;-78
2022/10/13 11:21:21;;;;;;;24.05;16.27;;;;;;;;;;4916731;29;20052;-77
2022/10/13 11:23:48;;;;;;;22.67;14.50;;;;;;;;;;4918870;29;20445;-77
2022/10/13 11:26:31;;;;;;;23.23;14.15;;;;;;;;;;4933055;29;20375;-78
2022/10/13 11:28:58;;;;;;;25.40;15.20;;;;;;;;;;4940075;28;20051;-77
2022/10/13 11:31:27;;;;;;;20.67;13.68;;;;;;;;;;4971935;28;20618;-79
2022/10/13 11:33:57;;;;;;;19.00;11.68;;;;;;;;;;4972341;28;20058;-82
2022/10/13 11:36:42;;;;;;;19.08;12.50;;;;;;;;;;4972047;28;20042;-82
2022/10/13 11:39:14;;;;;;;19.67;11.93;;;;;;;;;;4973365;28;20047;-82
2022/10/13 11:41:59;;;;;;;13.70;9.95;;;;;;;;;;4965439;28;20486;-82
2022/10/13 11:44:34;;;;;;;16.23;10.77;;;;;;;;;;4953983;29;20096;-83
2022/10/13 11:47:07;;;;;;;19.17;11.00;;;;;;;;;;4953849;28;20050;-83
2022/10/13 11:49:41;;;;;;;15.65;9.73;;;;;;;;;;4953745;28;20413;-82
2022/10/13 11:52:19;;;;;;;14.10;9.38;;;;;;;;;;4953972;28;20051;-83
2022/10/13 11:54:48;;;;;;;14.70;8.85;;;;;;;;;;4953867;28;20235;-83
2022/10/13 11:57:32;;;;;;;13.55;7.47;;;;;;;;;;4953655;28;20058;-83
2022/10/13 11:59:58;;;;;;;10.73;6.07;;;;;;;;;;4954061;28;20406;-83
2022/10/13 12:02:25;;;;;;;8.15;5.85;;;;;;;;;;4937810;28;20051;-83
2022/10/13 12:04:59;;;;;;;10.50;5.30;;;;;;;;;;4968389;28;20051;-84
2022/10/13 12:07:30;;;;;;;10.95;5.07;;;;;;;;;;4975251;28;20104;-83
2022/10/13 12:09:57;;;;;;;8.65;4.63;;;;;;;;;;4959414;28;20111;-83
2022/10/13 12:12:23;;;;;;;7.38;3.70;;;;;;;;;;4961702;28;20051;-83
2022/10/13 12:14:52;;;;;;;6.60;4.40;;;;;;;;;;4959095;28;20054;-84
2022/10/13 12:17:22;;;;;;;6.05;3.25;;;;;;;;;;4958496;28;20055;-84
2022/10/13 12:19:48;;;;;;;4.40;2.95;;;;;;;;;;4960899;28;20532;-79
2022/10/13 12:22:15;;;;;;;5.03;2.90;;;;;;;;;;4967475;28;20394;-79
2022/10/13 12:24:41;;;;;;;5.55;3.28;;;;;;;;;;4959589;28;20063;-83
2022/10/13 12:27:20;;;;;;;7.28;4.13;;;;;;;;;;4956891;28;20044;-83
2022/10/13 12:29:47;;;;;;;8.18;3.60;;;;;;;;;;4965518;28;20072;-83
2022/10/13 12:32:18;;;;;;;9.77;3.10;;;;;;;;;;4972484;28;20043;-82
2022/10/13 12:34:44;;;;;;;5.60;3.15;;;;;;;;;;4970713;28;20095;-86
2022/10/13 12:37:29;;;;;;;5.15;3.40;;;;;;;;;;4971412;28;20050;-83
2022/10/13 12:39:56;;;;;;;11.68;4.32;;;;;;;;;;4977553;28;20031;-83
2022/10/13 12:42:32;;;;;;;7.72;4.00;;;;;;;;;;4990431;28;20030;-83
2022/10/13 12:44:59;;;;;;;5.13;2.60;;;;;;;;;;4980297;28;20051;-83
2022/10/13 12:47:37;;;;;;;6.00;2.40;;;;;;;;;;4960446;28;20118;-84
2022/10/13 12:50:22;;;;;;;7.93;3.30;;;;;;;;;;4959576;28;20044;-85
2022/10/13 12:52:50;;;;;;;6.68;2.63;;;;;;;;;;4961484;28;20086;-84
2022/10/13 12:55:18;;;;;;;9.35;3.38;;;;;;;;;;4959919;28;20494;-85
2022/10/13 12:57:45;;;;;;;7.10;2.72;;;;;;;;;;4974752;28;20398;-85
2022/10/13 13:00:21;;;;;;;4.53;2.50;;;;;;;;;;4980923;28;20072;-85
2022/10/13 13:02:51;;;;;;;5.05;2.45;;;;;;;;;;4975158;28;20055;-85
2022/10/13 13:05:31;;;;;;;5.20;2.20;;;;;;;;;;4973877;28;20448;-85
2022/10/13 13:07:57;;;;;;;7.55;2.53;;;;;;;;;;4965525;28;20138;-86
2022/10/13 13:10:23;;;;;;;6.40;2.50;;;;;;;;;;4972142;28;20050;-85
2022/10/13 13:12:50;;;;;;;5.78;2.35;;;;;;;;;;4977198;28;20409;-86
2022/10/13 13:15:25;;;;;;;6.10;2.50;;;;;;;;;;4982685;28;20049;-85
2022/10/13 13:17:54;;;;;;;5.30;2.50;;;;;;;;;;4968184;28;20039;-85
2022/10/13 13:20:31;;;;;;;6.15;2.20;;;;;;;;;;4970457;28;20046;-85
2022/10/13 13:22:57;;;;;;;4.35;2.35;;;;;;;;;;4974066;28;20059;-85
2022/10/13 13:25:23;;;;;;;7.97;3.10;;;;;;;;;;4989297;28;20055;-85
2022/10/13 13:27:50;;;;;;;6.00;2.08;;;;;;;;;;4979917;28;20047;-85
2022/10/13 13:30:18;;;;;;;6.07;2.40;;;;;;;;;;4954718;28;20051;-82
2022/10/13 13:32:44;;;;;;;9.43;2.20;;;;;;;;;;4950816;29;20126;-80
2022/10/13 13:35:10;;;;;;;4.40;1.90;;;;;;;;;;4954657;28;20043;-78
2022/10/13 13:37:41;;;;;;;4.80;1.80;;;;;;;;;;4963677;28;20046;-82
2022/10/13 13:40:07;;;;;;;9.07;2.20;;;;;;;;;;4963696;28;20409;-81
2022/10/13 13:42:33;;;;;;;5.60;1.90;;;;;;;;;;4951816;29;20441;-81
2022/10/13 13:44:59;;;;;;;8.00;2.63;;;;;;;;;;4956952;28;20054;-81
2022/10/13 13:47:27;;;;;;;5.25;2.15;;;;;;;;;;4958739;28;20051;-81
2022/10/13 13:49:55;;;;;;;11.75;2.53;;;;;;;;;;4955557;29;20039;-82
2022/10/13 13:52:21;;;;;;;5.63;2.03;;;;;;;;;;4955826;28;20525;-81
2022/10/13 13:54:47;;;;;;;4.47;1.95;;;;;;;;;;4971028;28;20043;-80
2022/10/13 13:57:14;;;;;;;5.55;1.98;;;;;;;;;;4964088;28;20046;-80
2022/10/13 13:59:40;;;;;;;6.47;2.47;;;;;;;;;;4961841;28;20066;-76
2022/10/13 14:02:11;;;;;;;3.17;2.08;;;;;;;;;;4978708;28;20378;-82
2022/10/13 14:04:37;;;;;;;8.15;2.30;;;;;;;;;;4955507;28;20052;-82
2022/10/13 14:07:03;;;;;;;6.03;2.35;;;;;;;;;;4955205;28;20040;-81
2022/10/13 14:09:29;;;;;;;4.68;1.80;;;;;;;;;;4953773;29;20126;-81
2022/10/13 14:11:55;;;;;;;4.68;2.20;;;;;;;;;;4967433;28;20051;-80
2022/10/13 14:14:22;;;;;;;6.18;2.45;;;;;;;;;;4959907;28;20039;-80
2022/10/13 14:16:48;;;;;;;8.38;2.40;;;;;;;;;;4955208;29;20070;-82
2022/10/13 14:19:14;;;;;;;4.32;2.50;;;;;;;;;;4964897;28;20398;-81
2022/10/13 14:21:40;;;;;;;7.15;2.78;;;;;;;;;;4965939;28;20135;-80
2022/10/13 14:24:06;;;;;;;3.55;2.05;;;;;;;;;;4960962;28;20043;-80
2022/10/13 14:26:32;;;;;;;4.70;2.45;;;;;;;;;;4957537;28;20047;-80
2022/10/13 14:28:58;;;;;;;6.22;2.58;;;;;;;;;;4958861;28;20122;-80